createdAt,value
2022-10-07T00:01:10.945Z,102504.16
2022-10-07T00:03:38.927Z,102496.63
2022-10-07T00:06:11.952Z,102498.25
2022-10-07T00:08:43.798Z,102500.34
2022-10-07T00:11:14.516Z,102504.84
2022-10-07T00:13:44.553Z,102503.88
2022-10-07T00:16:15.472Z,102501.13
2022-10-07T00:18:44.931Z,102497.84
2022-10-07T00:21:16.315Z,102500.31
2022-10-07T00:23:47.838Z,102497.03
2022-10-07T00:26:18.611Z,102500.16
2022-10-07T00:28:47.570Z,102495.34
2022-10-07T00:31:18.155Z,102498.84
2022-10-07T00:33:46.445Z,102488.09
2022-10-07T00:36:19.819Z,102495.97
2022-10-07T00:38:55.918Z,102492.47
2022-10-07T00:41:27.435Z,102484.19
2022-10-07T00:43:55.609Z,102472.75
2022-10-07T00:46:32.207Z,102477.25
2022-10-07T00:49:06.226Z,102479.97
2022-10-07T00:51:37.871Z,102470.59
2022-10-07T00:54:13.239Z,102477.06
2022-10-07T00:56:43.329Z,102469.78
2022-10-07T00:59:13.121Z,102476.84
2022-10-07T01:01:42.070Z,102480.84
2022-10-07T01:04:11.216Z,102450.06
2022-10-07T01:06:39.699Z,102469.19
2022-10-07T01:09:12.125Z,102469.84
2022-10-07T01:11:54.074Z,102466.22
2022-10-07T01:14:46.003Z,102459.97
2022-10-07T01:17:24.625Z,102461.03
2022-10-07T01:20:19.815Z,102449.69
2022-10-07T01:23:17.861Z,102461.13
2022-10-07T01:26:16.453Z,102451.25
2022-10-07T01:28:52.337Z,102439.22
2022-10-07T01:31:29.961Z,102447.16
2022-10-07T01:33:58.138Z,102443.38
2022-10-07T01:36:28.026Z,102443.81
2022-10-07T01:39:03.740Z,102432.19
2022-10-07T01:41:33.928Z,102440.53
2022-10-07T01:44:04.971Z,102440.13
2022-10-07T01:46:37.645Z,102436.53
2022-10-07T01:49:06.643Z,102440.13
2022-10-07T01:51:39.787Z,102427.44
2022-10-07T01:54:26.086Z,102408.53
2022-10-07T01:57:14.800Z,102424.91
2022-10-07T02:00:10.035Z,102412.34
2022-10-07T02:03:21.336Z,102398.66
2022-10-07T02:06:00.652Z,102407.25
2022-10-07T02:08:38.364Z,102413.94
2022-10-07T02:11:16.037Z,102405.41
2022-10-07T02:13:57.885Z,102399.34
2022-10-07T02:16:36.384Z,102395.75
2022-10-07T02:19:11.229Z,102390.44
2022-10-07T02:21:41.640Z,102381.78
2022-10-07T02:24:13.545Z,102392.06
2022-10-07T02:26:44.653Z,102389.16
2022-10-07T02:29:18.535Z,102392.47
2022-10-07T02:31:51.226Z,102397.63
2022-10-07T02:34:24.076Z,102393.56
2022-10-07T02:36:58.577Z,102388.28
2022-10-07T02:39:26.526Z,102388.84
2022-10-07T02:42:04.259Z,102382.28
2022-10-07T02:44:40.166Z,102377.44
2022-10-07T02:47:18.826Z,102378.59
2022-10-07T02:49:53.214Z,102385.28
2022-10-07T02:52:24.953Z,102374.34
2022-10-07T02:54:58.897Z,102375.69
2022-10-07T02:57:32.036Z,102365.22
2022-10-07T03:00:05.201Z,102366.53
2022-10-07T03:02:45.746Z,102364.91
2022-10-07T03:05:19.996Z,102359.91
2022-10-07T03:07:49.705Z,102366.75
2022-10-07T03:10:17.840Z,102361.44
2022-10-07T03:12:45.641Z,102368.69
2022-10-07T03:15:13.707Z,102359.47
2022-10-07T03:17:43.435Z,102365.22
2022-10-07T03:20:11.629Z,102359.63
2022-10-07T03:22:39.436Z,102354.28
2022-10-07T03:25:08.326Z,102350.22
2022-10-07T03:27:36.153Z,102353.00
2022-10-07T03:30:04.399Z,102356.19
2022-10-07T03:32:32.205Z,102348.13
2022-10-07T03:35:01.691Z,102347.91
2022-10-07T03:37:32.031Z,102348.13
2022-10-07T03:39:59.882Z,102345.44
2022-10-07T03:42:27.755Z,102338.31
2022-10-07T03:44:55.533Z,102344.50
2022-10-07T03:47:23.345Z,102333.44
2022-10-07T03:49:51.208Z,102322.22
2022-10-07T03:52:20.380Z,102324.13
2022-10-07T03:54:48.135Z,102324.34
2022-10-07T03:57:48.125Z,102316.50
2022-10-07T04:00:16.397Z,102321.53
2022-10-07T04:02:44.384Z,102309.22
2022-10-07T04:05:12.267Z,102316.72
2022-10-07T04:07:41.542Z,102311.19
2022-10-07T04:10:10.620Z,102319.56
2022-10-07T04:12:38.624Z,102313.59
2022-10-07T04:15:07.496Z,102316.06
2022-10-07T04:17:35.865Z,102307.84
2022-10-07T04:20:03.890Z,102317.22
2022-10-07T04:22:32.802Z,102315.91
2022-10-07T04:25:19.565Z,102317.81
2022-10-07T04:27:52.438Z,102314.41
2022-10-07T04:30:21.282Z,102315.91
2022-10-07T04:32:50.812Z,102311.28
2022-10-07T04:35:19.836Z,102292.59
2022-10-07T04:37:49.415Z,102303.84
2022-10-07T04:40:20.179Z,102290.59
2022-10-07T04:43:05.670Z,102296.72
2022-10-07T04:45:34.082Z,102297.31
2022-10-07T04:48:02.360Z,102287.47
2022-10-07T04:50:30.116Z,102288.38
2022-10-07T04:52:57.951Z,102285.69
2022-10-07T04:55:28.215Z,102291.78
2022-10-07T04:57:56.040Z,102289.59
2022-10-07T05:00:23.981Z,102285.22
2022-10-07T05:02:51.801Z,102275.31
2022-10-07T05:05:19.845Z,102283.16
2022-10-07T05:07:51.285Z,102278.56
2022-10-07T05:10:19.361Z,102283.94
2022-10-07T05:12:52.540Z,102274.88
2022-10-07T05:15:23.310Z,102250.81
2022-10-07T05:17:55.922Z,102265.69
2022-10-07T05:20:24.226Z,102268.66
2022-10-07T05:22:52.065Z,102261.13
2022-10-07T05:25:20.895Z,102257.34
2022-10-07T05:27:54.965Z,102261.66
2022-10-07T05:30:22.946Z,102258.34
2022-10-07T05:32:51.620Z,102256.19
2022-10-07T05:35:19.389Z,102248.63
2022-10-07T05:37:50.963Z,102246.72
2022-10-07T05:40:19.215Z,102234.97
2022-10-07T05:42:47.150Z,102244.75
2022-10-07T05:45:16.777Z,102244.75
2022-10-07T05:47:44.859Z,102241.19
2022-10-07T05:50:12.935Z,102211.84
2022-10-07T05:52:40.759Z,102236.63
2022-10-07T05:55:10.638Z,102231.88
2022-10-07T05:57:39.941Z,102233.47
2022-10-07T06:00:09.767Z,102222.69
2022-10-07T06:02:39.108Z,102230.22
2022-10-07T06:05:08.406Z,102230.53
2022-10-07T06:07:39.603Z,102231.91
2022-10-07T06:10:26.441Z,102230.56
2022-10-07T06:13:09.411Z,102230.06
2022-10-07T06:15:37.938Z,102233.88
2022-10-07T06:18:07.342Z,102226.91
2022-10-07T06:20:35.149Z,102230.78
2022-10-07T06:23:03.063Z,102227.59
2022-10-07T06:25:30.904Z,102224.72
2022-10-07T06:28:00.136Z,102208.78
2022-10-07T06:30:29.293Z,102228.81
2022-10-07T06:32:57.543Z,102216.06
2022-10-07T06:35:26.755Z,102228.03
2022-10-07T06:37:54.550Z,102226.25
2022-10-07T06:40:22.317Z,102220.84
2022-10-07T06:42:50.054Z,102227.75
2022-10-07T06:45:17.849Z,102222.16
2022-10-07T06:47:45.958Z,102228.44
2022-10-07T06:50:13.972Z,102233.72
2022-10-07T06:52:43.824Z,102225.13
2022-10-07T06:55:11.556Z,102230.44
2022-10-07T06:57:46.758Z,102226.59
2022-10-07T07:00:15.965Z,102218.03
2022-10-07T07:02:44.516Z,102222.59
2022-10-07T07:05:16.070Z,102222.31
2022-10-07T07:07:45.505Z,102218.50
2022-10-07T07:10:13.519Z,102222.88
2022-10-07T07:12:41.382Z,102221.00
2022-10-07T07:15:10.774Z,102211.00
2022-10-07T07:17:38.585Z,102218.69
2022-10-07T07:20:09.226Z,102216.44
2022-10-07T07:22:37.721Z,102215.22
2022-10-07T07:25:09.913Z,102206.00
2022-10-07T07:27:37.988Z,102213.69
2022-10-07T07:30:07.564Z,102211.50
2022-10-07T07:32:35.432Z,102210.81
2022-10-07T07:35:04.536Z,102199.22
2022-10-07T07:37:32.560Z,102191.00
2022-10-07T07:40:00.520Z,102193.38
2022-10-07T07:42:29.624Z,102201.38
2022-10-07T07:45:00.858Z,102191.38
2022-10-07T07:47:28.683Z,102184.41
2022-10-07T07:49:56.610Z,102189.84
2022-10-07T07:52:25.634Z,102188.59
2022-10-07T07:54:57.823Z,102194.66
2022-10-07T07:57:26.328Z,102180.22
2022-10-07T07:59:55.711Z,102178.50
2022-10-07T08:02:25.931Z,102186.94
2022-10-07T08:04:54.723Z,102170.22
2022-10-07T08:07:22.585Z,102174.03
2022-10-07T08:09:53.730Z,102175.31
2022-10-07T08:12:23.366Z,102165.75
2022-10-07T08:14:53.457Z,102162.53
2022-10-07T08:17:22.828Z,102162.19
2022-10-07T08:19:50.836Z,102160.91
2022-10-07T08:22:18.639Z,102158.44
2022-10-07T08:24:47.033Z,102153.00
2022-10-07T08:27:15.137Z,102151.53
2022-10-07T08:29:42.970Z,102154.13
2022-10-07T08:32:10.805Z,102143.56
2022-10-07T08:34:40.216Z,102136.19
2022-10-07T08:37:12.680Z,102136.09
2022-10-07T08:39:40.497Z,102134.34
2022-10-07T08:42:16.597Z,102132.91
2022-10-07T08:44:49.490Z,102118.56
2022-10-07T08:47:28.553Z,102119.69
2022-10-07T08:50:07.899Z,102119.03
2022-10-07T08:52:47.754Z,102111.94
2022-10-07T08:55:28.143Z,102116.25
2022-10-07T08:58:40.938Z,102113.88
2022-10-07T09:01:25.431Z,102108.03
2022-10-07T09:04:14.597Z,102099.81
2022-10-07T09:06:54.236Z,102078.56
2022-10-07T09:09:29.751Z,102094.56
2022-10-07T09:12:01.316Z,102091.69
2022-10-07T09:14:34.753Z,102081.38
2022-10-07T09:17:10.739Z,102074.63
2022-10-07T09:19:46.285Z,102067.25
2022-10-07T09:22:23.569Z,102063.41
2022-10-07T09:25:20.529Z,102057.53
2022-10-07T09:27:48.973Z,102064.00
2022-10-07T09:30:18.004Z,102059.81
2022-10-07T09:32:48.984Z,102054.81
2022-10-07T09:35:20.646Z,102054.81
2022-10-07T09:38:02.405Z,102054.91
2022-10-07T09:41:03.688Z,102051.75
2022-10-07T09:43:33.881Z,102045.03
2022-10-07T09:46:02.735Z,102034.84
2022-10-07T09:48:35.051Z,102036.03
2022-10-07T09:51:17.869Z,102033.09
2022-10-07T09:53:59.987Z,102033.31
2022-10-07T09:56:41.902Z,102023.53
2022-10-07T09:59:20.885Z,102023.00
2022-10-07T10:01:55.046Z,102010.06
2022-10-07T10:04:32.466Z,102016.31
2022-10-07T10:07:06.555Z,102001.31
2022-10-07T10:09:36.060Z,102004.72
2022-10-07T10:12:14.153Z,102007.03
2022-10-07T10:14:49.779Z,102004.56
2022-10-07T10:17:32.289Z,102008.00
2022-10-07T10:20:31.396Z,101990.34
2022-10-07T10:23:02.069Z,101993.44
2022-10-07T10:26:28.337Z,101994.31
2022-10-07T10:29:23.164Z,101987.63
2022-10-07T10:32:23.844Z,101977.00
2022-10-07T10:35:03.795Z,101970.31
2022-10-07T10:37:58.270Z,101940.75
2022-10-07T10:40:37.166Z,101964.06
2022-10-07T10:43:23.578Z,101955.03
2022-10-07T10:46:16.964Z,101937.97
2022-10-07T10:48:53.922Z,101943.47
2022-10-07T10:51:43.243Z,101933.59
2022-10-07T10:54:30.190Z,101930.88
2022-10-07T10:57:14.825Z,101925.78
2022-10-07T11:00:04.563Z,101924.25
2022-10-07T11:03:14.835Z,101909.16
2022-10-07T11:05:44.986Z,101892.50
2022-10-07T11:08:24.160Z,101898.59
2022-10-07T11:11:01.299Z,101888.00
2022-10-07T11:13:40.863Z,101886.66
2022-10-07T11:16:16.770Z,101888.88
2022-10-07T11:18:55.559Z,101881.34
2022-10-07T11:21:31.346Z,101876.59
2022-10-07T11:24:06.592Z,101872.56
2022-10-07T11:26:40.551Z,101868.63
2022-10-07T11:29:23.249Z,101854.69
2022-10-07T11:32:03.251Z,101850.47
2022-10-07T11:34:44.969Z,101852.56
2022-10-07T11:37:22.809Z,101845.66
2022-10-07T11:39:53.510Z,101841.56
2022-10-07T11:42:27.750Z,101839.28
2022-10-07T11:45:05.024Z,101826.44
2022-10-07T11:47:38.926Z,101823.13
2022-10-07T11:50:15.366Z,101824.63
2022-10-07T11:52:48.346Z,101823.31
2022-10-07T11:55:26.557Z,101820.91
2022-10-07T11:57:58.900Z,101809.09
2022-10-07T12:00:34.041Z,101806.47
2022-10-07T12:03:35.015Z,101800.38
2022-10-07T12:06:13.386Z,101785.09
2022-10-07T12:08:42.957Z,101786.59
2022-10-07T12:11:49.601Z,101783.03
2022-10-07T12:14:43.093Z,101774.94
2022-10-07T12:17:30.256Z,101764.38
2022-10-07T12:20:46.393Z,101767.53
2022-10-07T12:24:11.064Z,101759.94
2022-10-07T12:26:48.139Z,101758.13
2022-10-07T12:29:28.985Z,101749.81
2022-10-07T12:31:57.316Z,101741.22
2022-10-07T12:34:45.835Z,101732.47
2022-10-07T12:38:02.888Z,101738.84
2022-10-07T12:40:36.260Z,101727.69
2022-10-07T12:43:16.501Z,101730.28
2022-10-07T12:45:44.791Z,101723.91
2022-10-07T12:48:21.542Z,101729.34
2022-10-07T12:50:57.041Z,101719.88
2022-10-07T12:53:27.821Z,101708.28
2022-10-07T12:55:57.559Z,101700.94
2022-10-07T12:59:09.921Z,101703.78
2022-10-07T13:02:02.510Z,101703.31
2022-10-07T13:04:57.585Z,101692.78
2022-10-07T13:08:18.889Z,101698.53
2022-10-07T13:11:30.478Z,101691.13
2022-10-07T13:14:07.347Z,101693.78
2022-10-07T13:16:44.666Z,101693.00
2022-10-07T13:19:30.953Z,101686.91
2022-10-07T13:22:10.486Z,101687.03
2022-10-07T13:24:43.784Z,101682.94
2022-10-07T13:27:12.527Z,101683.38
2022-10-07T13:29:40.535Z,101670.66
2022-10-07T13:32:17.396Z,101676.81
2022-10-07T13:34:46.442Z,101671.34
2022-10-07T13:37:29.289Z,101667.75
2022-10-07T13:40:20.038Z,101667.94
2022-10-07T13:42:55.412Z,101659.88
2022-10-07T13:45:24.385Z,101653.69
2022-10-07T13:47:53.043Z,101657.13
2022-10-07T13:50:27.069Z,101649.50
2022-10-07T13:52:57.377Z,101641.75
2022-10-07T13:55:32.437Z,101648.06
2022-10-07T13:58:04.421Z,101639.50
2022-10-07T14:00:35.362Z,101631.25
2022-10-07T14:03:13.197Z,101622.94
2022-10-07T14:05:51.909Z,101626.88
2022-10-07T14:08:23.325Z,101615.31
2022-10-07T14:10:59.536Z,101612.97
2022-10-07T14:13:29.153Z,101600.56
2022-10-07T14:16:00.280Z,101597.13
2022-10-07T14:18:31.344Z,101611.75
2022-10-07T14:21:16.801Z,101592.38
2022-10-07T14:26:17.714Z,101579.53
2022-10-07T14:28:46.000Z,101577.47
2022-10-07T14:31:40.577Z,101581.38
2022-10-07T14:34:34.702Z,101574.41
2022-10-07T14:37:09.123Z,101578.25
2022-10-07T14:39:40.044Z,101566.56
2022-10-07T14:42:15.391Z,101569.88
2022-10-07T14:44:44.028Z,101563.72
2022-10-07T14:47:16.064Z,101554.31
2022-10-07T14:49:44.530Z,101557.94
2022-10-07T14:52:23.480Z,101546.78
2022-10-07T14:54:53.197Z,101538.63
2022-10-07T14:57:22.498Z,101537.81
2022-10-07T14:59:50.298Z,101530.38
2022-10-07T15:02:18.178Z,101538.22
2022-10-07T15:04:46.692Z,101523.22
2022-10-07T15:07:16.821Z,101536.13
2022-10-07T15:09:46.792Z,101523.50
2022-10-07T15:12:17.049Z,101530.09
2022-10-07T15:14:46.303Z,101532.47
2022-10-07T15:17:14.283Z,101531.59
2022-10-07T15:19:42.267Z,101526.50
2022-10-07T15:22:10.111Z,101502.41
2022-10-07T15:24:38.610Z,101516.13
2022-10-07T15:27:09.754Z,101516.94
2022-10-07T15:29:37.593Z,101517.94
2022-10-07T15:32:08.410Z,101514.84
2022-10-07T15:34:36.202Z,101510.88
2022-10-07T15:37:04.069Z,101513.16
2022-10-07T15:39:34.108Z,101513.50
2022-10-07T15:42:09.296Z,101516.91
2022-10-07T15:44:37.212Z,101505.53
2022-10-07T15:47:06.489Z,101506.63
2022-10-07T15:49:36.093Z,101508.16
2022-10-07T15:52:04.313Z,101502.81
2022-10-07T15:54:32.545Z,101493.38
2022-10-07T15:57:00.472Z,101508.63
2022-10-07T15:59:28.323Z,101505.41
2022-10-07T16:01:56.451Z,101502.44
2022-10-07T16:04:42.728Z,101499.72
2022-10-07T16:07:11.346Z,101480.75
2022-10-07T16:09:39.427Z,101497.94
2022-10-07T16:12:08.602Z,101495.16
2022-10-07T16:14:36.815Z,101500.66
2022-10-07T16:17:04.871Z,101505.19
2022-10-07T16:19:34.103Z,101505.50
2022-10-07T16:22:02.109Z,101497.78
2022-10-07T16:24:34.786Z,101499.50
2022-10-07T16:27:03.123Z,101489.41
2022-10-07T16:29:48.901Z,101499.13
2022-10-07T16:32:16.681Z,101497.75
2022-10-07T16:34:46.990Z,101493.44
2022-10-07T16:37:15.944Z,101494.81
2022-10-07T16:39:43.729Z,101482.13
2022-10-07T16:42:11.600Z,101487.94
2022-10-07T16:44:39.420Z,101485.31
2022-10-07T16:47:07.176Z,101478.94
2022-10-07T16:49:36.391Z,101484.03
2022-10-07T16:52:06.428Z,101490.09
2022-10-07T16:54:35.436Z,101492.19
2022-10-07T16:57:03.397Z,101497.09
2022-10-07T16:59:31.211Z,101489.25
2022-10-07T17:02:02.296Z,101485.22
2022-10-07T17:04:30.313Z,101490.09
2022-10-07T17:06:58.305Z,101489.47
2022-10-07T17:09:27.595Z,101491.66
2022-10-07T17:11:56.742Z,101493.03
2022-10-07T17:14:24.986Z,101493.47
2022-10-07T17:16:56.324Z,101495.72
2022-10-07T17:19:27.196Z,101484.84
2022-10-07T17:21:56.670Z,101493.91
2022-10-07T17:24:25.104Z,101490.13
2022-10-07T17:26:56.146Z,101498.94
2022-10-07T17:29:26.282Z,101491.75
2022-10-07T17:31:54.913Z,101496.72
2022-10-07T17:34:23.644Z,101494.78
2022-10-07T17:36:51.970Z,101479.03
2022-10-07T17:39:20.155Z,101485.38
2022-10-07T17:41:48.770Z,101487.66
2022-10-07T17:44:18.563Z,101486.31
2022-10-07T17:46:48.971Z,101487.53
2022-10-07T17:49:16.981Z,101483.81
2022-10-07T17:51:45.244Z,101478.19
2022-10-07T17:54:14.702Z,101485.41
2022-10-07T17:56:45.672Z,101473.69
2022-10-07T17:59:14.335Z,101482.94
2022-10-07T18:01:44.497Z,101481.16
2022-10-07T18:04:17.970Z,101479.78
2022-10-07T18:06:48.987Z,101476.50
2022-10-07T18:09:19.291Z,101476.31
2022-10-07T18:12:05.167Z,101468.75
2022-10-07T18:14:53.777Z,101467.72
2022-10-07T18:17:24.540Z,101462.75
2022-10-07T18:19:52.671Z,101458.69
2022-10-07T18:22:20.717Z,101449.00
2022-10-07T18:24:49.685Z,101453.06
2022-10-07T18:27:17.593Z,101455.19
2022-10-07T18:29:45.783Z,101444.72
2022-10-07T18:32:13.628Z,101449.03
2022-10-07T18:34:42.799Z,101455.53
2022-10-07T18:37:10.667Z,101433.22
2022-10-07T18:39:38.992Z,101438.66
2022-10-07T18:42:06.928Z,101430.50
2022-10-07T18:44:34.916Z,101442.34
2022-10-07T18:47:02.751Z,101437.94
2022-10-07T18:49:30.562Z,101427.00
2022-10-07T18:51:59.746Z,101425.09
2022-10-07T18:54:27.638Z,101423.66
2022-10-07T18:56:55.510Z,101422.41
2022-10-07T18:59:23.494Z,101406.59
2022-10-07T19:01:51.541Z,101417.09
2022-10-07T19:04:20.615Z,101422.41
2022-10-07T19:06:50.862Z,101404.22
2022-10-07T19:09:22.404Z,101421.88
2022-10-07T19:11:50.703Z,101417.19
2022-10-07T19:14:17.793Z,101420.66
2022-10-07T19:16:49.126Z,101408.50
2022-10-07T19:19:20.547Z,101413.66
2022-10-07T19:21:51.474Z,101408.94
2022-10-07T19:24:42.189Z,101411.19
2022-10-07T19:27:10.074Z,101381.88
2022-10-07T19:29:37.939Z,101397.22
2022-10-07T19:32:08.635Z,101404.09
2022-10-07T19:34:37.250Z,101402.97
2022-10-07T19:37:05.197Z,101399.13
2022-10-07T19:39:34.566Z,101401.84
2022-10-07T19:42:02.467Z,101401.78
2022-10-07T19:44:33.538Z,101393.81
2022-10-07T19:47:01.495Z,101401.69
2022-10-07T19:49:29.488Z,101412.72
2022-10-07T19:51:57.368Z,101409.00
2022-10-07T19:54:25.367Z,101396.38
2022-10-07T19:56:54.574Z,101404.38
2022-10-07T19:59:22.384Z,101398.69
2022-10-07T20:01:52.176Z,101400.84
2022-10-07T20:04:21.182Z,101393.75
2022-10-07T20:06:49.812Z,101393.41
2022-10-07T20:09:20.123Z,101386.44
2022-10-07T20:11:48.591Z,101381.13
2022-10-07T20:14:18.883Z,101362.72
2022-10-07T20:16:46.739Z,101391.22
2022-10-07T20:19:18.785Z,101360.91
2022-10-07T20:21:47.448Z,101364.25
2022-10-07T20:24:17.812Z,101379.03
2022-10-07T20:26:46.079Z,101368.13
2022-10-07T20:29:16.183Z,101361.25
2022-10-07T20:31:46.082Z,101371.47
2022-10-07T20:34:15.914Z,101358.75
2022-10-07T20:36:44.357Z,101360.56
2022-10-07T20:39:35.069Z,101350.75
2022-10-07T20:42:22.407Z,101356.28
2022-10-07T20:44:51.676Z,101362.00
2022-10-07T20:47:22.506Z,101362.66
2022-10-07T20:49:51.509Z,101364.34
2022-10-07T20:52:21.499Z,101364.09
2022-10-07T20:54:50.273Z,101365.22
2022-10-07T20:57:21.395Z,101361.63
2022-10-07T20:59:49.740Z,101338.81
2022-10-07T21:02:22.015Z,101358.09
2022-10-07T21:04:50.012Z,101356.28
2022-10-07T21:07:19.468Z,101361.50
2022-10-07T21:09:48.121Z,101357.53
2022-10-07T21:12:18.710Z,101353.38
2022-10-07T21:14:48.322Z,101359.69
2022-10-07T21:17:16.808Z,101330.81
2022-10-07T21:19:46.002Z,101347.16
2022-10-07T21:22:13.797Z,101348.19
2022-10-07T21:24:41.691Z,101345.47
2022-10-07T21:27:10.554Z,101353.94
2022-10-07T21:29:41.062Z,101329.25
2022-10-07T21:32:09.942Z,101339.97
2022-10-07T21:34:38.471Z,101338.94
2022-10-07T21:37:08.220Z,101331.41
2022-10-07T21:39:35.871Z,101342.06
2022-10-07T21:42:04.447Z,101332.25
2022-10-07T21:44:33.511Z,101334.66
2022-10-07T21:47:01.424Z,101337.34
2022-10-07T21:49:29.290Z,101327.53
2022-10-07T21:51:57.242Z,101332.59
2022-10-07T21:54:26.480Z,101325.88
2022-10-07T21:56:54.274Z,101326.69
2022-10-07T21:59:22.065Z,101310.53
2022-10-07T22:01:49.961Z,101313.38
2022-10-07T22:04:19.804Z,101305.56
2022-10-07T22:07:05.544Z,101302.53
2022-10-07T22:09:35.731Z,101304.00
2022-10-07T22:12:03.708Z,101308.72
2022-10-07T22:14:31.512Z,101303.06
2022-10-07T22:16:59.429Z,101301.81
2022-10-07T22:19:27.300Z,101298.00
2022-10-07T22:21:55.295Z,101291.69
2022-10-07T22:24:24.057Z,101291.09
2022-10-07T22:26:53.366Z,101294.91
2022-10-07T22:29:23.064Z,101282.69
2022-10-07T22:31:51.012Z,101285.56
2022-10-07T22:34:37.272Z,101288.59
2022-10-07T22:37:06.221Z,101282.41
2022-10-07T22:39:34.213Z,101277.22
2022-10-07T22:42:04.454Z,101268.34
2022-10-07T22:44:32.444Z,101274.06
2022-10-07T22:47:00.656Z,101274.19
2022-10-07T22:49:30.279Z,101269.47
2022-10-07T22:51:59.693Z,101258.19
2022-10-07T22:54:28.474Z,101223.22
2022-10-07T22:56:56.333Z,101249.56
2022-10-07T22:59:25.842Z,101250.84
2022-10-07T23:01:53.779Z,101245.50
2022-10-07T23:04:32.214Z,101249.00
2022-10-07T23:07:00.101Z,101253.16
2022-10-07T23:09:27.908Z,101250.31
2022-10-07T23:11:56.947Z,101245.94
2022-10-07T23:14:26.240Z,101237.97
2022-10-07T23:16:54.130Z,101239.41
2022-10-07T23:19:21.948Z,101233.88
2022-10-07T23:21:49.827Z,101225.91
2022-10-07T23:24:17.831Z,101206.59
2022-10-07T23:26:46.515Z,101234.53
2022-10-07T23:29:17.353Z,101239.28
2022-10-07T23:31:47.236Z,101234.00
2022-10-07T23:34:15.470Z,101226.75
2022-10-07T23:36:43.321Z,101220.47
2022-10-07T23:39:11.557Z,101222.59
2022-10-07T23:41:39.407Z,101215.03
2022-10-07T23:44:07.583Z,101218.03
2022-10-07T23:46:36.812Z,101214.25
2022-10-07T23:49:06.881Z,101208.38
2022-10-07T23:51:35.161Z,101214.50
2022-10-07T23:54:04.976Z,101210.28
2022-10-07T23:56:33.770Z,101211.94
2022-10-07T23:59:02.759Z,101213.16
